sensor_id;sensor_type;location;lat;lon;timestamp;temperature;humidity
49052;DHT22;34866;48.670;18.260;2023-08-07T00:00:57;359.20;2329.60
49052;DHT22;34866;48.670;18.260;2023-08-07T00:03:22;359.20;2329.60
49052;DHT22;34866;48.670;18.260;2023-08-07T00:05:48;359.20;2329.60
49052;DHT22;34866;48.670;18.260;2023-08-07T00:08:14;359.20;2329.60
49052;DHT22;34866;48.670;18.260;2023-08-07T00:10:40;359.20;2329.60
49052;DHT22;34866;48.670;18.260;2023-08-07T00:13:15;359.30;2329.60
49052;DHT22;34866;48.670;18.260;2023-08-07T00:16:15;359.20;2329.60
49052;DHT22;34866;48.670;18.260;2023-08-07T00:18:41;359.20;2329.60
49052;DHT22;34866;48.670;18.260;2023-08-07T00:21:15;359.30;2329.60
49052;DHT22;34866;48.670;18.260;2023-08-07T00:23:44;359.10;2329.60
49052;DHT22;34866;48.670;18.260;2023-08-07T00:26:29;359.00;2329.60
49052;DHT22;34866;48.670;18.260;2023-08-07T00:29:33;359.10;2329.60
49052;DHT22;34866;48.670;18.260;2023-08-07T00:32:02;359.00;2329.60
49052;DHT22;34866;48.670;18.260;2023-08-07T00:34:40;359.00;2329.60
49052;DHT22;34866;48.670;18.260;2023-08-07T00:37:11;358.90;2329.60
49052;DHT22;34866;48.670;18.260;2023-08-07T00:39:37;359.00;2329.60
49052;DHT22;34866;48.670;18.260;2023-08-07T00:42:02;358.90;2329.60
49052;DHT22;34866;48.670;18.260;2023-08-07T00:44:30;358.90;2329.60
49052;DHT22;34866;48.670;18.260;2023-08-07T00:47:16;358.80;2329.60
49052;DHT22;34866;48.670;18.260;2023-08-07T00:49:48;358.90;2329.60
49052;DHT22;34866;48.670;18.260;2023-08-07T00:52:35;359.10;2329.60
49052;DHT22;34866;48.670;18.260;2023-08-07T00:55:30;359.00;2329.60
49052;DHT22;34866;48.670;18.260;2023-08-07T00:58:50;359.00;2329.60
49052;DHT22;34866;48.670;18.260;2023-08-07T01:01:44;358.80;2329.60
49052;DHT22;34866;48.670;18.260;2023-08-07T01:05:10;358.80;2329.60
49052;DHT22;34866;48.670;18.260;2023-08-07T01:08:08;358.90;2329.60
49052;DHT22;34866;48.670;18.260;2023-08-07T01:19:51;358.90;2329.60
49052;DHT22;34866;48.670;18.260;2023-08-07T01:25:42;358.90;2329.60
49052;DHT22;34866;48.670;18.260;2023-08-07T01:31:42;358.70;2329.60
49052;DHT22;34866;48.670;18.260;2023-08-07T01:34:40;358.80;2304.00
49052;DHT22;34866;48.670;18.260;2023-08-07T01:37:10;358.80;2176.00
49052;DHT22;34866;48.670;18.260;2023-08-07T01:40:05;358.80;2329.60
49052;DHT22;34866;48.670;18.260;2023-08-07T01:42:32;358.80;2329.60
49052;DHT22;34866;48.670;18.260;2023-08-07T01:45:05;358.80;2304.00
49052;DHT22;34866;48.670;18.260;2023-08-07T01:47:57;358.80;2329.60
49052;DHT22;34866;48.670;18.260;2023-08-07T01:50:42;358.80;2329.60
49052;DHT22;34866;48.670;18.260;2023-08-07T01:53:51;358.80;2329.60
49052;DHT22;34866;48.670;18.260;2023-08-07T01:56:46;358.90;1996.80
49052;DHT22;34866;48.670;18.260;2023-08-07T01:59:31;358.90;2329.60
49052;DHT22;34866;48.670;18.260;2023-08-07T02:02:09;358.80;2329.60
49052;DHT22;34866;48.670;18.260;2023-08-07T02:04:36;358.80;2329.60
49052;DHT22;34866;48.670;18.260;2023-08-07T02:07:04;358.80;2329.60
49052;DHT22;34866;48.670;18.260;2023-08-07T02:09:30;358.80;2329.60
49052;DHT22;34866;48.670;18.260;2023-08-07T02:12:11;358.80;2329.60
49052;DHT22;34866;48.670;18.260;2023-08-07T02:14:40;358.80;2329.60
49052;DHT22;34866;48.670;18.260;2023-08-07T02:17:09;358.80;2329.60
49052;DHT22;34866;48.670;18.260;2023-08-07T02:19:34;358.80;2329.60
49052;DHT22;34866;48.670;18.260;2023-08-07T02:22:03;358.80;2329.60
49052;DHT22;34866;48.670;18.260;2023-08-07T02:24:30;358.80;2329.60
49052;DHT22;34866;48.670;18.260;2023-08-07T02:27:00;358.80;2329.60
49052;DHT22;34866;48.670;18.260;2023-08-07T02:29:45;358.80;2329.60
49052;DHT22;34866;48.670;18.260;2023-08-07T02:32:15;358.70;2329.60
49052;DHT22;34866;48.670;18.260;2023-08-07T02:35:01;358.70;2329.60
49052;DHT22;34866;48.670;18.260;2023-08-07T02:37:59;358.60;2329.60
49052;DHT22;34866;48.670;18.260;2023-08-07T02:40:34;358.60;2329.60
49052;DHT22;34866;48.670;18.260;2023-08-07T02:43:05;358.60;2329.60
49052;DHT22;34866;48.670;18.260;2023-08-07T02:45:31;358.50;2329.60
49052;DHT22;34866;48.670;18.260;2023-08-07T02:48:03;358.60;2329.60
49052;DHT22;34866;48.670;18.260;2023-08-07T02:50:51;358.60;2329.60
49052;DHT22;34866;48.670;18.260;2023-08-07T02:53:18;358.70;2329.60
49052;DHT22;34866;48.670;18.260;2023-08-07T02:55:45;358.70;2329.60
49052;DHT22;34866;48.670;18.260;2023-08-07T02:58:11;358.70;2329.60
49052;DHT22;34866;48.670;18.260;2023-08-07T03:00:37;358.70;2329.60
49052;DHT22;34866;48.670;18.260;2023-08-07T03:03:05;358.80;2329.60
49052;DHT22;34866;48.670;18.260;2023-08-07T03:05:52;358.70;2329.60
49052;DHT22;34866;48.670;18.260;2023-08-07T03:08:20;358.70;2329.60
49052;DHT22;34866;48.670;18.260;2023-08-07T03:10:57;358.70;2329.60
49052;DHT22;34866;48.670;18.260;2023-08-07T03:13:40;358.80;2329.60
49052;DHT22;34866;48.670;18.260;2023-08-07T03:16:07;358.70;2329.60
49052;DHT22;34866;48.670;18.260;2023-08-07T03:18:34;358.80;2329.60
49052;DHT22;34866;48.670;18.260;2023-08-07T03:21:00;358.80;2329.60
49052;DHT22;34866;48.670;18.260;2023-08-07T03:23:27;358.80;2329.60
49052;DHT22;34866;48.670;18.260;2023-08-07T03:26:11;358.80;2329.60
49052;DHT22;34866;48.670;18.260;2023-08-07T03:28:39;358.80;2329.60
49052;DHT22;34866;48.670;18.260;2023-08-07T03:31:31;358.70;2329.60
49052;DHT22;34866;48.670;18.260;2023-08-07T03:34:05;358.80;1689.60
49052;DHT22;34866;48.670;18.260;2023-08-07T03:36:35;358.70;2329.60
49052;DHT22;34866;48.670;18.260;2023-08-07T03:39:13;358.70;2329.60
49052;DHT22;34866;48.670;18.260;2023-08-07T03:41:39;358.80;1792.00
49052;DHT22;34866;48.670;18.260;2023-08-07T03:44:08;358.80;1280.00
49052;DHT22;34866;48.670;18.260;2023-08-07T03:46:36;358.80;1587.20
49052;DHT22;34866;48.670;18.260;2023-08-07T03:49:02;358.80;1280.00
49052;DHT22;34866;48.670;18.260;2023-08-07T03:51:33;358.70;1408.00
49052;DHT22;34866;48.670;18.260;2023-08-07T03:53:59;358.80;947.20
49052;DHT22;34866;48.670;18.260;2023-08-07T03:56:34;358.80;972.80
49052;DHT22;34866;48.670;18.260;2023-08-07T03:59:06;358.70;1561.60
49052;DHT22;34866;48.670;18.260;2023-08-07T04:01:52;358.60;1740.80
49052;DHT22;34866;48.670;18.260;2023-08-07T04:04:17;358.80;640.00
49052;DHT22;34866;48.670;18.260;2023-08-07T04:06:43;358.80;768.00
49052;DHT22;34866;48.670;18.260;2023-08-07T04:09:13;358.80;819.20
49052;DHT22;34866;48.670;18.260;2023-08-07T04:12:02;358.80;896.00
49052;DHT22;34866;48.670;18.260;2023-08-07T04:14:31;358.80;614.40
49052;DHT22;34866;48.670;18.260;2023-08-07T04:16:56;358.80;640.00
49052;DHT22;34866;48.670;18.260;2023-08-07T04:19:32;358.80;614.40
49052;DHT22;34866;48.670;18.260;2023-08-07T04:22:04;358.80;896.00
49052;DHT22;34866;48.670;18.260;2023-08-07T04:24:38;358.70;1203.20
49052;DHT22;34866;48.670;18.260;2023-08-07T04:27:09;358.80;1126.40
49052;DHT22;34866;48.670;18.260;2023-08-07T04:29:34;358.80;563.20
49052;DHT22;34866;48.670;18.260;2023-08-07T04:32:02;358.90;204.80
49052;DHT22;34866;48.670;18.260;2023-08-07T04:34:29;358.90;256.00
49052;DHT22;34866;48.670;18.260;2023-08-07T04:36:55;358.80;1075.20
49052;DHT22;34866;48.670;18.260;2023-08-07T04:39:23;358.90;128.00
49052;DHT22;34866;48.670;18.260;2023-08-07T04:42:06;358.90;128.00
49052;DHT22;34866;48.670;18.260;2023-08-07T04:44:33;359.00;128.00
49052;DHT22;34866;48.670;18.260;2023-08-07T04:47:01;359.00;128.00
49052;DHT22;34866;48.670;18.260;2023-08-07T04:49:33;358.90;307.20
49052;DHT22;34866;48.670;18.260;2023-08-07T04:52:00;358.90;128.00
49052;DHT22;34866;48.670;18.260;2023-08-07T04:54:26;358.90;128.00
49052;DHT22;34866;48.670;18.260;2023-08-07T04:56:52;358.90;128.00
49052;DHT22;34866;48.670;18.260;2023-08-07T05:00:10;358.90;128.00
49052;DHT22;34866;48.670;18.260;2023-08-07T05:02:51;358.90;128.00
49052;DHT22;34866;48.670;18.260;2023-08-07T05:05:17;358.90;128.00
49052;DHT22;34866;48.670;18.260;2023-08-07T05:07:54;358.90;128.00
49052;DHT22;34866;48.670;18.260;2023-08-07T05:10:26;359.00;128.00
49052;DHT22;34866;48.670;18.260;2023-08-07T05:13:10;358.90;128.00
49052;DHT22;34866;48.670;18.260;2023-08-07T05:15:59;358.80;128.00
49052;DHT22;34866;48.670;18.260;2023-08-07T05:18:36;358.90;128.00
49052;DHT22;34866;48.670;18.260;2023-08-07T05:21:07;358.90;128.00
49052;DHT22;34866;48.670;18.260;2023-08-07T05:24:01;358.80;128.00
49052;DHT22;34866;48.670;18.260;2023-08-07T05:26:39;358.90;128.00
49052;DHT22;34866;48.670;18.260;2023-08-07T05:29:13;358.80;128.00
49052;DHT22;34866;48.670;18.260;2023-08-07T05:31:58;358.90;128.00
49052;DHT22;34866;48.670;18.260;2023-08-07T05:34:41;358.80;128.00
49052;DHT22;34866;48.670;18.260;2023-08-07T05:37:18;358.80;128.00
49052;DHT22;34866;48.670;18.260;2023-08-07T05:39:44;358.80;128.00
49052;DHT22;34866;48.670;18.260;2023-08-07T05:42:39;358.80;128.00
49052;DHT22;34866;48.670;18.260;2023-08-07T05:45:26;358.80;128.00
49052;DHT22;34866;48.670;18.260;2023-08-07T05:47:56;358.80;128.00
49052;DHT22;34866;48.670;18.260;2023-08-07T05:50:22;358.70;128.00
49052;DHT22;34866;48.670;18.260;2023-08-07T05:52:52;358.70;793.60
49052;DHT22;34866;48.670;18.260;2023-08-07T05:55:26;358.70;128.00
49052;DHT22;34866;48.670;18.260;2023-08-07T05:58:07;358.60;921.60
49052;DHT22;34866;48.670;18.260;2023-08-07T06:00:33;358.60;281.60
49052;DHT22;34866;48.670;18.260;2023-08-07T06:03:00;358.70;1203.20
49052;DHT22;34866;48.670;18.260;2023-08-07T06:05:26;358.60;1305.60
49052;DHT22;34866;48.670;18.260;2023-08-07T06:07:58;358.60;486.40
49052;DHT22;34866;48.670;18.260;2023-08-07T06:10:43;358.70;947.20
49052;DHT22;34866;48.670;18.260;2023-08-07T06:13:35;358.80;563.20
49052;DHT22;34866;48.670;18.260;2023-08-07T06:16:04;358.90;128.00
49052;DHT22;34866;48.670;18.260;2023-08-07T06:18:29;358.90;128.00
49052;DHT22;34866;48.670;18.260;2023-08-07T06:21:14;358.90;128.00
49052;DHT22;34866;48.670;18.260;2023-08-07T06:24:21;358.90;128.00
49052;DHT22;34866;48.670;18.260;2023-08-07T06:26:47;358.90;128.00
49052;DHT22;34866;48.670;18.260;2023-08-07T06:29:40;359.00;128.00
49052;DHT22;34866;48.670;18.260;2023-08-07T06:32:28;358.90;128.00
49052;DHT22;34866;48.670;18.260;2023-08-07T06:34:55;358.90;128.00
49052;DHT22;34866;48.670;18.260;2023-08-07T06:37:24;358.90;128.00
49052;DHT22;34866;48.670;18.260;2023-08-07T06:42:57;358.90;128.00
49052;DHT22;34866;48.670;18.260;2023-08-07T06:45:28;358.90;128.00
49052;DHT22;34866;48.670;18.260;2023-08-07T06:47:54;358.90;128.00
49052;DHT22;34866;48.670;18.260;2023-08-07T06:50:20;359.00;128.00
49052;DHT22;34866;48.670;18.260;2023-08-07T06:52:56;359.00;128.00
49052;DHT22;34866;48.670;18.260;2023-08-07T06:55:22;358.90;128.00
49052;DHT22;34866;48.670;18.260;2023-08-07T06:58:01;358.90;128.00
49052;DHT22;34866;48.670;18.260;2023-08-07T07:00:34;358.90;128.00
49052;DHT22;34866;48.670;18.260;2023-08-07T07:03:06;358.90;128.00
49052;DHT22;34866;48.670;18.260;2023-08-07T07:05:41;358.90;128.00
49052;DHT22;34866;48.670;18.260;2023-08-07T07:11:18;358.80;128.00
49052;DHT22;34866;48.670;18.260;2023-08-07T07:13:47;358.90;128.00
49052;DHT22;34866;48.670;18.260;2023-08-07T07:16:15;358.80;128.00
49052;DHT22;34866;48.670;18.260;2023-08-07T07:18:41;358.80;128.00
49052;DHT22;34866;48.670;18.260;2023-08-07T07:21:07;358.80;128.00
49052;DHT22;34866;48.670;18.260;2023-08-07T07:23:33;358.80;128.00
49052;DHT22;34866;48.670;18.260;2023-08-07T07:26:01;358.80;128.00
49052;DHT22;34866;48.670;18.260;2023-08-07T07:28:30;358.80;128.00
49052;DHT22;34866;48.670;18.260;2023-08-07T07:31:08;358.80;128.00
49052;DHT22;34866;48.670;18.260;2023-08-07T07:33:37;358.80;128.00
49052;DHT22;34866;48.670;18.260;2023-08-07T07:36:05;358.90;128.00
49052;DHT22;34866;48.670;18.260;2023-08-07T07:38:32;358.90;128.00
49052;DHT22;34866;48.670;18.260;2023-08-07T07:40:58;358.80;128.00
49052;DHT22;34866;48.670;18.260;2023-08-07T07:43:47;358.80;128.00
49052;DHT22;34866;48.670;18.260;2023-08-07T07:46:20;358.90;128.00
49052;DHT22;34866;48.670;18.260;2023-08-07T07:48:46;358.90;128.00
49052;DHT22;34866;48.670;18.260;2023-08-07T07:51:14;358.90;128.00
49052;DHT22;34866;48.670;18.260;2023-08-07T07:53:40;358.90;128.00
49052;DHT22;34866;48.670;18.260;2023-08-07T07:56:06;358.90;128.00
49052;DHT22;34866;48.670;18.260;2023-08-07T07:58:44;358.80;128.00
49052;DHT22;34866;48.670;18.260;2023-08-07T08:01:31;358.80;128.00
49052;DHT22;34866;48.670;18.260;2023-08-07T08:03:57;358.70;128.00
49052;DHT22;34866;48.670;18.260;2023-08-07T08:06:23;358.70;128.00
49052;DHT22;34866;48.670;18.260;2023-08-07T08:08:54;358.70;281.60
49052;DHT22;34866;48.670;18.260;2023-08-07T08:11:21;358.70;819.20
49052;DHT22;34866;48.670;18.260;2023-08-07T08:13:52;358.60;1152.00
49052;DHT22;34866;48.670;18.260;2023-08-07T08:16:18;358.40;1817.60
49052;DHT22;34866;48.670;18.260;2023-08-07T08:18:44;333.70;2073.60
49052;DHT22;34866;48.670;18.260;2023-08-07T08:21:12;333.70;2329.60
49052;DHT22;34866;48.670;18.260;2023-08-07T08:23:38;333.70;2329.60
49052;DHT22;34866;48.670;18.260;2023-08-07T08:26:08;333.70;2329.60
49052;DHT22;34866;48.670;18.260;2023-08-07T08:28:34;333.70;2329.60
49052;DHT22;34866;48.670;18.260;2023-08-07T08:30:59;333.60;2329.60
49052;DHT22;34866;48.670;18.260;2023-08-07T08:33:25;333.70;2329.60
49052;DHT22;34866;48.670;18.260;2023-08-07T08:38:20;358.40;2329.60
49052;DHT22;34866;48.670;18.260;2023-08-07T08:40:47;358.40;2329.60
49052;DHT22;34866;48.670;18.260;2023-08-07T08:43:27;358.50;2329.60
49052;DHT22;34866;48.670;18.260;2023-08-07T08:45:56;333.70;2329.60
49052;DHT22;34866;48.670;18.260;2023-08-07T08:48:22;358.50;2329.60
49052;DHT22;34866;48.670;18.260;2023-08-07T08:50:49;358.50;2329.60
49052;DHT22;34866;48.670;18.260;2023-08-07T08:53:16;358.50;2329.60
49052;DHT22;34866;48.670;18.260;2023-08-07T08:56:04;358.50;2329.60
49052;DHT22;34866;48.670;18.260;2023-08-07T08:58:32;358.50;2329.60
49052;DHT22;34866;48.670;18.260;2023-08-07T09:00:58;358.60;2329.60
49052;DHT22;34866;48.670;18.260;2023-08-07T09:03:24;358.50;2329.60
49052;DHT22;34866;48.670;18.260;2023-08-07T09:05:57;358.50;2329.60
49052;DHT22;34866;48.670;18.260;2023-08-07T09:08:26;358.50;2329.60
49052;DHT22;34866;48.670;18.260;2023-08-07T09:11:02;358.50;2329.60
49052;DHT22;34866;48.670;18.260;2023-08-07T09:13:30;358.60;2329.60
49052;DHT22;34866;48.670;18.260;2023-08-07T09:16:05;358.60;2329.60
49052;DHT22;34866;48.670;18.260;2023-08-07T09:18:32;358.40;2329.60
49052;DHT22;34866;48.670;18.260;2023-08-07T09:20:58;358.40;2329.60
49052;DHT22;34866;48.670;18.260;2023-08-07T09:23:25;358.40;2329.60
49052;DHT22;34866;48.670;18.260;2023-08-07T09:26:00;358.40;2329.60
49052;DHT22;34866;48.670;18.260;2023-08-07T09:28:28;358.40;2329.60
49052;DHT22;34866;48.670;18.260;2023-08-07T09:30:55;333.40;2329.60
49052;DHT22;34866;48.670;18.260;2023-08-07T09:33:29;333.70;2304.00
49052;DHT22;34866;48.670;18.260;2023-08-07T09:36:00;333.70;2329.60
49052;DHT22;34866;48.670;18.260;2023-08-07T09:38:30;333.70;2329.60
49052;DHT22;34866;48.670;18.260;2023-08-07T09:41:03;333.70;2329.60
49052;DHT22;34866;48.670;18.260;2023-08-07T09:43:29;333.50;2329.60
49052;DHT22;34866;48.670;18.260;2023-08-07T09:46:19;333.50;2329.60
49052;DHT22;34866;48.670;18.260;2023-08-07T09:48:45;333.40;2329.60
49052;DHT22;34866;48.670;18.260;2023-08-07T09:51:11;333.50;2329.60
49052;DHT22;34866;48.670;18.260;2023-08-07T09:53:38;333.40;2329.60
49052;DHT22;34866;48.670;18.260;2023-08-07T09:56:06;333.50;2329.60
49052;DHT22;34866;48.670;18.260;2023-08-07T09:58:33;333.50;2329.60
49052;DHT22;34866;48.670;18.260;2023-08-07T10:01:05;333.50;2329.60
49052;DHT22;34866;48.670;18.260;2023-08-07T10:03:34;333.50;2329.60
49052;DHT22;34866;48.670;18.260;2023-08-07T10:06:01;333.60;2329.60
49052;DHT22;34866;48.670;18.260;2023-08-07T10:08:28;333.60;2329.60
49052;DHT22;34866;48.670;18.260;2023-08-07T10:10:54;333.70;2329.60
49052;DHT22;34866;48.670;18.260;2023-08-07T10:13:21;333.70;2329.60
49052;DHT22;34866;48.670;18.260;2023-08-07T10:15:48;358.40;2329.60
49052;DHT22;34866;48.670;18.260;2023-08-07T10:18:14;333.70;2329.60
49052;DHT22;34866;48.670;18.260;2023-08-07T10:20:45;333.60;2329.60
49052;DHT22;34866;48.670;18.260;2023-08-07T10:23:11;333.60;2329.60
49052;DHT22;34866;48.670;18.260;2023-08-07T10:25:42;333.50;2329.60
49052;DHT22;34866;48.670;18.260;2023-08-07T10:28:10;333.40;2329.60
49052;DHT22;34866;48.670;18.260;2023-08-07T10:30:38;333.50;2329.60
49052;DHT22;34866;48.670;18.260;2023-08-07T10:33:06;333.50;2329.60
49052;DHT22;34866;48.670;18.260;2023-08-07T10:35:33;333.50;2329.60
49052;DHT22;34866;48.670;18.260;2023-08-07T10:38:09;333.60;2329.60
49052;DHT22;34866;48.670;18.260;2023-08-07T10:41:08;333.60;2329.60
49052;DHT22;34866;48.670;18.260;2023-08-07T10:43:42;333.60;2329.60
49052;DHT22;34866;48.670;18.260;2023-08-07T10:46:12;333.60;2329.60
49052;DHT22;34866;48.670;18.260;2023-08-07T10:48:39;333.60;2329.60
49052;DHT22;34866;48.670;18.260;2023-08-07T10:51:07;333.70;2329.60
49052;DHT22;34866;48.670;18.260;2023-08-07T10:53:38;333.50;2329.60
49052;DHT22;34866;48.670;18.260;2023-08-07T10:56:09;333.50;2329.60
49052;DHT22;34866;48.670;18.260;2023-08-07T10:58:36;333.50;2329.60
49052;DHT22;34866;48.670;18.260;2023-08-07T11:03:50;333.50;2329.60
49052;DHT22;34866;48.670;18.260;2023-08-07T11:06:17;333.40;2329.60
49052;DHT22;34866;48.670;18.260;2023-08-07T11:08:43;333.60;2329.60
49052;DHT22;34866;48.670;18.260;2023-08-07T11:11:09;333.50;2329.60
49052;DHT22;34866;48.670;18.260;2023-08-07T11:13:35;333.60;2329.60
49052;DHT22;34866;48.670;18.260;2023-08-07T11:16:05;333.50;2329.60
49052;DHT22;34866;48.670;18.260;2023-08-07T11:18:31;333.50;2329.60
49052;DHT22;34866;48.670;18.260;2023-08-07T11:20:58;333.50;2329.60
49052;DHT22;34866;48.670;18.260;2023-08-07T11:23:25;333.60;2329.60
49052;DHT22;34866;48.670;18.260;2023-08-07T11:25:54;333.60;2329.60
49052;DHT22;34866;48.670;18.260;2023-08-07T11:28:40;333.60;2329.60
49052;DHT22;34866;48.670;18.260;2023-08-07T11:31:06;333.70;2329.60
49052;DHT22;34866;48.670;18.260;2023-08-07T11:33:32;333.70;2329.60
49052;DHT22;34866;48.670;18.260;2023-08-07T11:35:58;333.70;2329.60
49052;DHT22;34866;48.670;18.260;2023-08-07T11:38:37;333.70;2329.60
49052;DHT22;34866;48.670;18.260;2023-08-07T11:41:04;333.70;2329.60
49052;DHT22;34866;48.670;18.260;2023-08-07T11:43:32;333.70;2329.60
49052;DHT22;34866;48.670;18.260;2023-08-07T11:46:00;333.70;2329.60
49052;DHT22;34866;48.670;18.260;2023-08-07T11:48:28;333.70;2329.60
49052;DHT22;34866;48.670;18.260;2023-08-07T11:50:58;358.40;2329.60
49052;DHT22;34866;48.670;18.260;2023-08-07T11:53:28;358.50;2329.60
49052;DHT22;34866;48.670;18.260;2023-08-07T11:58:50;358.60;2329.60
49052;DHT22;34866;48.670;18.260;2023-08-07T12:01:19;358.70;2329.60
49052;DHT22;34866;48.670;18.260;2023-08-07T12:06:30;358.60;2329.60
49052;DHT22;34866;48.670;18.260;2023-08-07T12:08:57;358.80;2329.60
49052;DHT22;34866;48.670;18.260;2023-08-07T12:11:23;358.70;2329.60
49052;DHT22;34866;48.670;18.260;2023-08-07T12:13:50;358.60;2329.60
49052;DHT22;34866;48.670;18.260;2023-08-07T12:16:16;358.70;2329.60
49052;DHT22;34866;48.670;18.260;2023-08-07T12:18:50;358.70;2329.60
49052;DHT22;34866;48.670;18.260;2023-08-07T12:21:23;358.60;2329.60
49052;DHT22;34866;48.670;18.260;2023-08-07T12:23:55;358.50;2329.60
49052;DHT22;34866;48.670;18.260;2023-08-07T12:26:21;358.50;2329.60
49052;DHT22;34866;48.670;18.260;2023-08-07T12:28:46;358.50;2329.60
49052;DHT22;34866;48.670;18.260;2023-08-07T12:31:14;358.50;2329.60
49052;DHT22;34866;48.670;18.260;2023-08-07T12:33:42;358.50;2329.60
49052;DHT22;34866;48.670;18.260;2023-08-07T12:36:09;358.50;2329.60
49052;DHT22;34866;48.670;18.260;2023-08-07T12:38:36;358.60;2329.60
49052;DHT22;34866;48.670;18.260;2023-08-07T12:41:14;358.60;2329.60
49052;DHT22;34866;48.670;18.260;2023-08-07T12:43:44;358.70;2329.60
49052;DHT22;34866;48.670;18.260;2023-08-07T12:46:10;358.60;2329.60
49052;DHT22;34866;48.670;18.260;2023-08-07T12:48:39;358.60;2329.60
49052;DHT22;34866;48.670;18.260;2023-08-07T12:51:08;358.60;2329.60
49052;DHT22;34866;48.670;18.260;2023-08-07T12:53:33;358.60;2329.60
49052;DHT22;34866;48.670;18.260;2023-08-07T12:56:00;358.70;2329.60
49052;DHT22;34866;48.670;18.260;2023-08-07T12:58:27;358.80;2329.60
49052;DHT22;34866;48.670;18.260;2023-08-07T13:00:56;358.70;2329.60
49052;DHT22;34866;48.670;18.260;2023-08-07T13:03:24;358.90;2329.60
49052;DHT22;34866;48.670;18.260;2023-08-07T13:05:52;358.90;2329.60
49052;DHT22;34866;48.670;18.260;2023-08-07T13:08:18;358.80;2329.60
49052;DHT22;34866;48.670;18.260;2023-08-07T13:10:44;358.70;2329.60
49052;DHT22;34866;48.670;18.260;2023-08-07T13:13:10;358.60;2329.60
49052;DHT22;34866;48.670;18.260;2023-08-07T13:15:38;358.80;2329.60
49052;DHT22;34866;48.670;18.260;2023-08-07T13:18:07;358.90;2329.60
49052;DHT22;34866;48.670;18.260;2023-08-07T13:20:33;358.90;2329.60
49052;DHT22;34866;48.670;18.260;2023-08-07T13:23:01;358.70;2329.60
49052;DHT22;34866;48.670;18.260;2023-08-07T13:25:27;358.80;2329.60
49052;DHT22;34866;48.670;18.260;2023-08-07T13:27:54;358.70;2329.60
49052;DHT22;34866;48.670;18.260;2023-08-07T13:30:23;358.70;2329.60
49052;DHT22;34866;48.670;18.260;2023-08-07T13:32:53;358.80;2329.60
49052;DHT22;34866;48.670;18.260;2023-08-07T13:35:21;358.70;2329.60
49052;DHT22;34866;48.670;18.260;2023-08-07T13:37:48;358.60;2329.60
49052;DHT22;34866;48.670;18.260;2023-08-07T13:40:17;358.60;2329.60
49052;DHT22;34866;48.670;18.260;2023-08-07T13:42:44;358.60;2329.60
49052;DHT22;34866;48.670;18.260;2023-08-07T13:45:12;358.60;2329.60
49052;DHT22;34866;48.670;18.260;2023-08-07T13:47:42;358.60;2329.60
49052;DHT22;34866;48.670;18.260;2023-08-07T13:50:08;358.60;2329.60
49052;DHT22;34866;48.670;18.260;2023-08-07T13:52:37;358.50;2329.60
49052;DHT22;34866;48.670;18.260;2023-08-07T13:55:05;358.50;2329.60
49052;DHT22;34866;48.670;18.260;2023-08-07T13:57:32;358.50;2329.60
49052;DHT22;34866;48.670;18.260;2023-08-07T14:00:23;358.50;2329.60
49052;DHT22;34866;48.670;18.260;2023-08-07T14:02:48;358.40;2329.60
49052;DHT22;34866;48.670;18.260;2023-08-07T14:05:20;358.40;2329.60
49052;DHT22;34866;48.670;18.260;2023-08-07T14:07:46;358.50;2329.60
49052;DHT22;34866;48.670;18.260;2023-08-07T14:10:12;358.50;2329.60
49052;DHT22;34866;48.670;18.260;2023-08-07T14:12:37;358.50;2329.60
49052;DHT22;34866;48.670;18.260;2023-08-07T14:15:04;358.60;2329.60
49052;DHT22;34866;48.670;18.260;2023-08-07T14:17:30;358.60;2329.60
49052;DHT22;34866;48.670;18.260;2023-08-07T14:19:59;358.60;2329.60
49052;DHT22;34866;48.670;18.260;2023-08-07T14:22:27;358.50;2329.60
49052;DHT22;34866;48.670;18.260;2023-08-07T14:24:53;358.50;2329.60
49052;DHT22;34866;48.670;18.260;2023-08-07T14:27:19;358.50;2329.60
49052;DHT22;34866;48.670;18.260;2023-08-07T14:29:44;358.50;2329.60
49052;DHT22;34866;48.670;18.260;2023-08-07T14:32:11;358.50;2329.60
49052;DHT22;34866;48.670;18.260;2023-08-07T14:34:57;358.50;2329.60
49052;DHT22;34866;48.670;18.260;2023-08-07T14:37:23;358.50;2329.60
49052;DHT22;34866;48.670;18.260;2023-08-07T14:39:49;358.50;2329.60
49052;DHT22;34866;48.670;18.260;2023-08-07T14:42:15;358.60;2329.60
49052;DHT22;34866;48.670;18.260;2023-08-07T14:44:42;358.60;2329.60
49052;DHT22;34866;48.670;18.260;2023-08-07T14:47:14;358.50;2329.60
49052;DHT22;34866;48.670;18.260;2023-08-07T14:49:55;358.50;2329.60
49052;DHT22;34866;48.670;18.260;2023-08-07T14:52:40;358.50;2329.60
49052;DHT22;34866;48.670;18.260;2023-08-07T14:55:06;358.50;2329.60
49052;DHT22;34866;48.670;18.260;2023-08-07T14:57:35;358.60;2329.60
49052;DHT22;34866;48.670;18.260;2023-08-07T15:00:04;358.50;2329.60
49052;DHT22;34866;48.670;18.260;2023-08-07T15:02:40;358.50;2329.60
49052;DHT22;34866;48.670;18.260;2023-08-07T15:05:07;358.50;2329.60
49052;DHT22;34866;48.670;18.260;2023-08-07T15:07:33;358.60;2329.60
49052;DHT22;34866;48.670;18.260;2023-08-07T15:09:59;358.60;2329.60
49052;DHT22;34866;48.670;18.260;2023-08-07T15:12:26;358.50;2329.60
49052;DHT22;34866;48.670;18.260;2023-08-07T15:14:52;358.50;2329.60
49052;DHT22;34866;48.670;18.260;2023-08-07T15:17:20;358.60;2329.60
49052;DHT22;34866;48.670;18.260;2023-08-07T15:19:46;358.60;2329.60
49052;DHT22;34866;48.670;18.260;2023-08-07T15:22:11;358.60;2329.60
49052;DHT22;34866;48.670;18.260;2023-08-07T15:24:37;358.60;2329.60
49052;DHT22;34866;48.670;18.260;2023-08-07T15:27:06;358.70;2329.60
49052;DHT22;34866;48.670;18.260;2023-08-07T15:29:31;358.70;2329.60
49052;DHT22;34866;48.670;18.260;2023-08-07T15:32:02;358.70;2329.60
49052;DHT22;34866;48.670;18.260;2023-08-07T15:34:34;358.70;2329.60
49052;DHT22;34866;48.670;18.260;2023-08-07T15:37:15;358.70;2329.60
49052;DHT22;34866;48.670;18.260;2023-08-07T15:39:41;358.70;2329.60